Colstrip, MT

10:35 PM MDT on April 21, 2015 (GMT -0600)
Water Plant | | Change Station
CLOSE
Current Station
Personal Weather Station
Location: Colstrip, MT
Elevation: 3255 ft
Nearby Weather Stations

Elev 3255 ft 45.89 °N, 106.63 °W | Updated 28 seconds ago

Clear
Clear
48.3 °F
Feels Like 46 °F
N
6.0
Wind Variable Wind from East
Gusts 9.0 mph

Today
High -- | Low -- °F
--% Chance of Precip.
Yesterday
High -- | Low -- °F
Precip. -- in
6:10 AM 8:01 PM
Waxing Crescent, 15% visible
Pressure 29.95 in
Visibility 10.0 miles
Clouds Clear
Windchill 46 °F
Dew Point 26 °F
Humidity 42%
Rainfall 0.00 in
Snow Depth Not available.
UV 0 out of 12
Pollen 9.50 out of 12
Air Quality Not available.
Flu Activity Regional
METAR KMLS 220353Z AUTO 06008KT 10SM CLR 07/M06 A2993 RMK AO2 SLP142 T00671061

More Conditions Fewer Conditions

Pressure 29.95 in
Visibility 10.0 miles
Clouds Clear
Windchill 46 °F
Dew Point 26 °F
Humidity 42%
Rainfall 0.00 in
Snow Depth Not available.
UV 0 out of 12
Pollen 9.50 out of 12
Air Quality Not available.
Flu Activity Regional
METAR KMLS 220353Z AUTO 06008KT 10SM CLR 07/M06 A2993 RMK AO2 SLP142 T00671061

More Conditions Fewer Conditions

10-Day Weather Forecast

Almanac

Astronomy

Apr. 21, 2015 Rise Set
Actual Time
Civil Twilight
Nautical Twilight
Astronomical Twilight
Moon
Length of Visible Light
Length of Day
Tomorrow will be .
, % of the Moon is Illuminated

Today's Extremes

State Highs State Lows

Community

WunderPhotos

Upload Photos

1,815,668 photos uploaded!

WunderBlogs® & News

Nearby

Air Quality

  Air Quality AQ Index Pollutant
Not available.

Snow Depth

Station Depth Elevation

Earthquake Activity

City Distance Mag. Time & Date
Minimum magnitude displayed is 2.5.

Coastal Water Temperatures

Place Temperature

Stations

Nearby Weather Stations

Station Location Temp. Windchill Dew Point Humidity Wind Precip. Elev Updated Type